createdAt,value
2022-10-24T00:00:58.908Z,999.37
2022-10-24T00:05:58.856Z,999.16
2022-10-24T00:10:58.770Z,999.19
2022-10-24T00:15:58.712Z,999.17
2022-10-24T00:20:58.672Z,999.27
2022-10-24T00:25:58.567Z,999.37
2022-10-24T00:30:58.485Z,999.49
2022-10-24T00:35:58.459Z,999.46
2022-10-24T00:40:58.388Z,999.42
2022-10-24T00:45:58.301Z,999.33
2022-10-24T00:50:58.232Z,999.25
2022-10-24T00:55:58.156Z,999.23
2022-10-24T01:00:58.157Z,999.31
2022-10-24T01:05:58.012Z,999.39
2022-10-24T01:10:57.946Z,999.34
2022-10-24T01:15:57.871Z,999.23
2022-10-24T01:20:57.801Z,999.27
2022-10-24T01:25:57.748Z,999.25
2022-10-24T01:30:57.688Z,999.45
2022-10-24T01:35:57.637Z,999.40
2022-10-24T01:40:57.533Z,999.35
2022-10-24T01:45:57.515Z,999.06
2022-10-24T01:50:57.403Z,999.07
2022-10-24T01:55:57.342Z,999.03
2022-10-24T02:00:57.293Z,999.17
2022-10-24T02:05:57.223Z,999.02
2022-10-24T02:10:57.124Z,998.97
2022-10-24T02:15:57.087Z,998.91
2022-10-24T02:20:57.013Z,998.91
2022-10-24T02:25:56.946Z,998.92
2022-10-24T02:30:56.891Z,998.70
2022-10-24T02:35:56.793Z,998.62
2022-10-24T02:40:56.740Z,998.55
2022-10-24T02:45:56.674Z,998.56
2022-10-24T02:50:56.594Z,998.69
2022-10-24T02:55:56.529Z,998.64
2022-10-24T03:00:56.482Z,998.62
2022-10-24T03:05:56.421Z,998.66
2022-10-24T03:10:56.327Z,998.68
2022-10-24T03:15:56.284Z,998.81
2022-10-24T03:20:56.177Z,998.83
2022-10-24T03:25:56.135Z,998.88
2022-10-24T03:30:56.074Z,998.92
2022-10-24T03:35:55.996Z,998.84
2022-10-24T03:40:55.920Z,998.84
2022-10-24T03:45:55.905Z,998.98
2022-10-24T03:50:55.799Z,998.93
2022-10-24T03:55:55.729Z,998.91
2022-10-24T04:00:55.712Z,998.93
2022-10-24T04:05:55.727Z,998.90
2022-10-24T04:10:55.520Z,999.00
2022-10-24T04:15:55.467Z,998.90
2022-10-24T04:20:55.403Z,998.90
2022-10-24T04:25:55.343Z,998.92
2022-10-24T04:30:55.278Z,999.06
2022-10-24T04:35:55.266Z,999.13
2022-10-24T04:40:55.170Z,999.08
2022-10-24T04:45:55.093Z,998.97
2022-10-24T04:50:55.049Z,998.96
2022-10-24T04:55:54.974Z,999.02
2022-10-24T05:00:54.918Z,998.94
2022-10-24T05:05:54.853Z,998.97
2022-10-24T05:10:54.773Z,998.88
2022-10-24T05:15:54.725Z,999.05
2022-10-24T05:20:55.026Z,998.96
2022-10-24T05:25:54.638Z,999.25
2022-10-24T05:30:54.528Z,999.09
2022-10-24T05:35:54.442Z,999.03
2022-10-24T05:40:54.373Z,998.93
2022-10-24T05:45:54.360Z,998.92
2022-10-24T05:50:54.253Z,998.98
2022-10-24T05:55:54.174Z,999.21
2022-10-24T06:00:54.376Z,999.19
2022-10-24T06:05:54.082Z,999.22
2022-10-24T06:10:54.000Z,999.23
2022-10-24T06:15:53.936Z,999.17
2022-10-24T06:20:56.106Z,999.21
2022-10-24T06:25:54.151Z,999.20
2022-10-24T06:30:53.733Z,999.10
2022-10-24T06:35:53.709Z,999.25
2022-10-24T06:40:53.748Z,999.20
2022-10-24T06:45:53.589Z,999.24
2022-10-24T06:50:53.546Z,999.24
2022-10-24T06:55:53.405Z,999.33
2022-10-24T07:00:53.394Z,999.45
2022-10-24T07:05:53.326Z,999.30
2022-10-24T07:10:53.216Z,999.37
2022-10-24T07:15:53.165Z,999.39
2022-10-24T07:20:53.071Z,999.42
2022-10-24T07:25:53.001Z,999.36
2022-10-24T07:30:52.961Z,999.31
2022-10-24T07:35:52.929Z,999.22
2022-10-24T07:40:52.933Z,999.23
2022-10-24T07:45:53.364Z,999.26
2022-10-24T07:50:52.675Z,999.34
2022-10-24T07:55:52.661Z,999.34
2022-10-24T08:00:52.573Z,999.22
2022-10-24T08:05:52.492Z,999.21
2022-10-24T08:10:52.441Z,999.22
2022-10-24T08:15:52.465Z,999.27
2022-10-24T08:20:52.286Z,999.17
2022-10-24T08:25:52.238Z,999.06
2022-10-24T08:30:52.182Z,999.15
2022-10-24T08:35:52.080Z,999.29
2022-10-24T08:40:52.039Z,999.36
2022-10-24T08:45:51.975Z,999.31
2022-10-24T08:50:51.883Z,999.33
2022-10-24T08:55:51.841Z,999.22
2022-10-24T09:00:51.852Z,999.17
2022-10-24T09:05:51.692Z,999.13
2022-10-24T09:10:51.722Z,999.15
2022-10-24T09:15:51.551Z,999.20
2022-10-24T09:20:51.580Z,998.99
2022-10-24T09:25:51.502Z,999.02
2022-10-24T09:30:51.379Z,999.12
2022-10-24T09:35:51.362Z,999.11
2022-10-24T09:40:51.255Z,999.09
2022-10-24T09:45:51.161Z,998.97
2022-10-24T09:50:51.115Z,998.96
2022-10-24T09:55:51.026Z,999.08
2022-10-24T10:00:51.006Z,999.04
2022-10-24T10:05:50.917Z,999.03
2022-10-24T10:10:50.886Z,998.96
2022-10-24T10:15:50.799Z,998.84
2022-10-24T10:20:50.731Z,998.89
2022-10-24T10:25:50.710Z,998.75
2022-10-24T10:30:50.572Z,998.67
2022-10-24T10:35:50.529Z,998.63
2022-10-24T10:40:50.456Z,998.76
2022-10-24T10:45:50.431Z,998.73
2022-10-24T10:50:50.328Z,998.66
2022-10-24T10:55:50.277Z,998.67
2022-10-24T11:00:50.209Z,998.62
2022-10-24T11:05:50.184Z,998.44
2022-10-24T11:10:50.063Z,998.24
2022-10-24T11:15:49.986Z,998.30
2022-10-24T11:20:49.916Z,998.52
2022-10-24T11:25:49.933Z,998.43
2022-10-24T11:30:49.809Z,998.48
2022-10-24T11:35:49.709Z,998.42
2022-10-24T11:40:50.940Z,998.47
2022-10-24T11:45:50.134Z,998.32
2022-10-24T11:50:49.521Z,998.35
2022-10-24T11:55:49.498Z,998.39
2022-10-24T12:00:49.436Z,998.53
2022-10-24T12:05:49.325Z,998.54
2022-10-24T12:10:49.261Z,998.46
2022-10-24T12:15:49.164Z,998.23
2022-10-24T12:20:49.131Z,998.37
2022-10-24T12:25:49.054Z,998.72
2022-10-24T12:30:49.040Z,998.83
2022-10-24T12:35:48.936Z,998.61
2022-10-24T12:40:48.878Z,998.55
2022-10-24T12:45:48.826Z,998.44
2022-10-24T12:50:48.792Z,998.58
2022-10-24T12:55:48.731Z,998.47
2022-10-24T13:00:48.624Z,998.39
2022-10-24T13:05:48.534Z,998.32
2022-10-24T13:10:48.471Z,998.28
2022-10-24T13:15:48.416Z,998.29
2022-10-24T13:20:48.351Z,998.26
2022-10-24T13:25:48.253Z,998.24
2022-10-24T13:30:49.741Z,998.23
2022-10-24T13:35:48.136Z,998.42
2022-10-24T13:40:48.063Z,998.44
2022-10-24T13:45:48.095Z,998.65
2022-10-24T13:50:47.995Z,998.64
2022-10-24T13:55:47.863Z,998.80
2022-10-24T14:00:47.833Z,998.73
2022-10-24T14:05:47.735Z,998.69
2022-10-24T14:10:47.665Z,998.63
2022-10-24T14:15:47.612Z,998.64
2022-10-24T14:20:47.583Z,998.58
2022-10-24T14:25:47.469Z,998.65
2022-10-24T14:30:47.423Z,998.69
2022-10-24T14:35:47.334Z,998.65
2022-10-24T14:40:47.296Z,998.61
2022-10-24T14:45:47.236Z,998.67
2022-10-24T14:50:47.131Z,998.78
2022-10-24T14:55:47.086Z,998.76
2022-10-24T15:00:47.054Z,998.79
2022-10-24T15:05:46.967Z,998.90
2022-10-24T15:10:46.920Z,998.84
2022-10-24T15:15:47.125Z,998.98
2022-10-24T15:20:46.787Z,999.06
2022-10-24T15:25:46.683Z,999.03
2022-10-24T15:30:46.625Z,999.11
2022-10-24T15:35:46.567Z,999.12
2022-10-24T15:40:46.502Z,999.16
2022-10-24T15:45:46.402Z,999.15
2022-10-24T15:50:46.392Z,999.25
2022-10-24T15:55:46.269Z,999.25
2022-10-24T16:00:46.267Z,999.30
2022-10-24T16:05:46.146Z,999.38
2022-10-24T16:10:46.118Z,999.39
2022-10-24T16:15:46.129Z,999.26
2022-10-24T16:20:45.957Z,999.35
2022-10-24T16:25:45.944Z,999.42
2022-10-24T16:30:45.909Z,999.36
2022-10-24T16:35:45.815Z,999.25
2022-10-24T16:40:45.723Z,999.30
2022-10-24T16:45:45.645Z,999.26
2022-10-24T16:50:46.563Z,999.42
2022-10-24T16:55:45.574Z,999.50
2022-10-24T17:00:45.869Z,999.37
2022-10-24T17:05:45.357Z,999.32
2022-10-24T17:10:45.383Z,999.27
2022-10-24T17:15:45.226Z,999.39
2022-10-24T17:20:45.166Z,999.40
2022-10-24T17:25:45.154Z,999.32
2022-10-24T17:30:45.114Z,999.32
2022-10-24T17:35:44.975Z,999.23
2022-10-24T17:40:44.917Z,999.33
2022-10-24T17:45:44.841Z,999.44
2022-10-24T17:50:44.770Z,999.41
2022-10-24T17:55:46.746Z,999.35
2022-10-24T18:00:44.717Z,999.33
2022-10-24T18:05:44.563Z,999.45
2022-10-24T18:10:44.527Z,999.52
2022-10-24T18:15:44.439Z,999.61
2022-10-24T18:20:44.596Z,999.69
2022-10-24T18:25:44.425Z,999.49
2022-10-24T18:30:44.256Z,999.54
2022-10-24T18:35:44.196Z,999.49
2022-10-24T18:40:44.436Z,999.70
2022-10-24T18:45:44.091Z,999.64
2022-10-24T18:50:43.998Z,999.68
2022-10-24T18:55:44.046Z,999.71
2022-10-24T19:00:43.935Z,999.73
2022-10-24T19:05:43.779Z,999.78
2022-10-24T19:10:43.752Z,999.69
2022-10-24T19:15:43.852Z,999.71
2022-10-24T19:20:43.593Z,999.68
2022-10-24T19:25:43.543Z,999.69
2022-10-24T19:30:43.490Z,999.71
2022-10-24T19:35:43.422Z,999.79
2022-10-24T19:40:43.342Z,999.75
2022-10-24T19:45:50.526Z,999.77
2022-10-24T19:50:44.327Z,999.82
2022-10-24T19:55:43.145Z,999.79
2022-10-24T20:00:43.501Z,999.75
2022-10-24T20:05:42.995Z,999.88
2022-10-24T20:10:42.969Z,999.84
2022-10-24T20:15:42.867Z,999.93
2022-10-24T20:20:42.824Z,999.82
2022-10-24T20:25:42.744Z,999.92
2022-10-24T20:30:42.678Z,999.92
2022-10-24T20:35:42.608Z,999.98
2022-10-24T20:40:42.553Z,1000.00
2022-10-24T20:45:42.469Z,1000.00
2022-10-24T20:50:42.414Z,999.95
2022-10-24T20:55:44.628Z,999.98
2022-10-24T21:00:42.281Z,1000.04
2022-10-24T21:05:42.193Z,1000.04
2022-10-24T21:10:42.157Z,1000.08
2022-10-24T21:15:42.070Z,1000.11
2022-10-24T21:20:41.985Z,1000.12
2022-10-24T21:30:41.863Z,1000.03
2022-10-24T21:35:41.798Z,1000.10
2022-10-24T21:40:41.716Z,1000.10
2022-10-24T21:45:41.649Z,1000.04
2022-10-24T21:50:41.646Z,1000.12
2022-10-24T21:55:41.544Z,1000.05
2022-10-24T22:00:41.477Z,1000.22
2022-10-24T22:05:41.414Z,1000.24
2022-10-24T22:10:41.328Z,1000.28
2022-10-24T22:15:41.410Z,1000.24
2022-10-24T22:20:41.238Z,1000.31
2022-10-24T22:25:41.124Z,1000.26
2022-10-24T22:30:41.040Z,1000.31
2022-10-24T22:35:40.987Z,1000.37
2022-10-24T22:40:40.951Z,1000.42
2022-10-24T22:45:40.855Z,1000.44
2022-10-24T22:50:40.811Z,1000.47
2022-10-24T22:55:40.724Z,1000.37
2022-10-24T23:00:40.676Z,1000.39
2022-10-24T23:05:40.636Z,1000.44
2022-10-24T23:10:40.522Z,1000.53
2022-10-24T23:15:40.450Z,1000.56
2022-10-24T23:20:40.446Z,1000.61
2022-10-24T23:25:40.335Z,1000.79
2022-10-24T23:30:40.262Z,1000.86
2022-10-24T23:35:40.220Z,1000.89
2022-10-24T23:40:40.214Z,1000.93
2022-10-24T23:45:40.095Z,1000.91
2022-10-24T23:50:40.059Z,1000.88
2022-10-24T23:55:39.942Z,1000.91
